createdAt,value
2022-11-13T00:01:10.317Z,16.45
2022-11-13T00:03:38.820Z,16.58
2022-11-13T00:06:07.420Z,15.65
2022-11-13T00:08:35.641Z,15.35
2022-11-13T00:11:04.972Z,14.68
2022-11-13T00:13:35.127Z,14.88
2022-11-13T00:16:04.992Z,14.52
2022-11-13T00:18:36.383Z,14.15
2022-11-13T00:21:08.058Z,13.90
2022-11-13T00:23:37.237Z,13.43
2022-11-13T00:26:06.554Z,13.02
2022-11-13T00:28:35.898Z,12.55
2022-11-13T00:31:05.267Z,12.95
2022-11-13T00:34:02.121Z,13.43
2022-11-13T00:36:26.280Z,13.90
2022-11-13T00:38:54.637Z,13.52
2022-11-13T00:41:22.569Z,13.82
2022-11-13T00:43:51.904Z,13.73
2022-11-13T00:46:20.147Z,14.38
2022-11-13T00:48:48.320Z,14.73
2022-11-13T00:51:16.235Z,13.93
2022-11-13T00:53:44.055Z,13.88
2022-11-13T00:56:12.142Z,13.68
2022-11-13T00:58:40.273Z,14.23
2022-11-13T01:01:11.331Z,13.90
2022-11-13T01:03:39.359Z,13.98
2022-11-13T01:06:17.204Z,14.32
2022-11-13T01:08:45.645Z,14.63
2022-11-13T01:11:16.874Z,14.10
2022-11-13T01:13:48.150Z,14.60
2022-11-13T01:16:19.848Z,14.80
2022-11-13T01:18:47.984Z,14.60
2022-11-13T01:21:18.795Z,14.15
2022-11-13T01:23:47.125Z,15.00
2022-11-13T01:26:17.808Z,14.63
2022-11-13T01:28:46.586Z,14.65
2022-11-13T01:31:18.917Z,15.35
2022-11-13T01:33:47.560Z,13.77
2022-11-13T01:36:18.484Z,14.80
2022-11-13T01:38:47.352Z,14.05
2022-11-13T01:41:23.074Z,14.70
2022-11-13T01:43:52.533Z,13.95
2022-11-13T01:46:27.395Z,14.10
2022-11-13T01:49:16.779Z,14.90
2022-11-13T01:51:49.585Z,13.50
2022-11-13T01:54:20.682Z,14.02
2022-11-13T01:56:49.632Z,13.73
2022-11-13T01:59:21.413Z,15.10
2022-11-13T02:01:50.853Z,14.50
2022-11-13T02:04:18.926Z,14.32
2022-11-13T02:06:49.560Z,14.98
2022-11-13T02:09:21.282Z,14.77
2022-11-13T02:11:49.631Z,14.13
2022-11-13T02:14:19.136Z,14.32
2022-11-13T02:16:50.001Z,12.90
2022-11-13T02:19:26.967Z,13.50
2022-11-13T02:22:05.449Z,13.02
2022-11-13T02:24:41.019Z,13.43
2022-11-13T02:27:18.389Z,14.25
2022-11-13T02:29:46.264Z,14.18
2022-11-13T02:32:14.112Z,13.77
2022-11-13T02:34:42.019Z,13.98
2022-11-13T02:37:09.868Z,14.60
2022-11-13T02:39:39.106Z,13.50
2022-11-13T02:42:06.955Z,13.63
2022-11-13T02:44:34.833Z,14.07
2022-11-13T02:47:02.664Z,12.88
2022-11-13T02:49:31.390Z,12.70
2022-11-13T02:51:59.451Z,12.55
2022-11-13T02:54:27.330Z,11.38
2022-11-13T02:56:56.611Z,10.82
2022-11-13T02:59:24.583Z,10.27
2022-11-13T03:01:52.436Z,11.25
2022-11-13T03:04:20.323Z,10.80
2022-11-13T03:06:48.218Z,10.52
2022-11-13T03:09:16.175Z,11.25
2022-11-13T03:11:45.020Z,10.60
2022-11-13T03:14:14.237Z,11.20
2022-11-13T03:16:42.413Z,10.45
2022-11-13T03:19:10.734Z,9.98
2022-11-13T03:21:38.548Z,10.30
2022-11-13T03:24:06.638Z,11.00
2022-11-13T03:26:34.702Z,10.27
2022-11-13T03:29:02.576Z,10.27
2022-11-13T03:31:31.812Z,9.25
2022-11-13T03:34:00.121Z,10.00
2022-11-13T03:36:27.993Z,10.00
2022-11-13T03:38:56.079Z,9.85
2022-11-13T03:41:24.476Z,9.98
2022-11-13T03:43:52.277Z,10.00
2022-11-13T03:46:20.123Z,10.43
2022-11-13T03:48:49.690Z,10.55
2022-11-13T03:51:17.650Z,9.48
2022-11-13T03:53:45.529Z,9.07
2022-11-13T03:56:13.369Z,10.75
2022-11-13T03:58:44.703Z,10.57
2022-11-13T04:01:15.036Z,10.75
2022-11-13T04:03:42.878Z,10.00
2022-11-13T04:06:12.113Z,10.05
2022-11-13T04:08:40.040Z,9.73
2022-11-13T04:11:09.090Z,9.98
2022-11-13T04:13:37.095Z,9.85
2022-11-13T04:16:05.436Z,9.43
2022-11-13T04:18:33.775Z,9.60
2022-11-13T04:21:02.287Z,9.80
2022-11-13T04:23:31.500Z,9.77
2022-11-13T04:25:59.535Z,9.93
2022-11-13T04:28:27.921Z,10.15
2022-11-13T04:30:56.619Z,9.82
2022-11-13T04:33:24.597Z,9.25
2022-11-13T04:35:52.604Z,9.60
2022-11-13T04:38:20.580Z,9.90
2022-11-13T04:41:12.180Z,9.73
2022-11-13T04:43:39.043Z,8.98
2022-11-13T04:46:07.112Z,9.70
2022-11-13T04:48:35.311Z,9.15
2022-11-13T04:51:03.137Z,8.30
2022-11-13T04:53:30.960Z,9.15
2022-11-13T04:56:00.160Z,8.68
2022-11-13T04:58:28.304Z,9.45
2022-11-13T05:00:56.379Z,10.90
2022-11-13T05:03:24.249Z,9.93
2022-11-13T05:05:52.147Z,9.38
2022-11-13T05:08:20.063Z,9.50
2022-11-13T05:10:47.893Z,9.27
2022-11-13T05:13:17.502Z,8.57
2022-11-13T05:15:45.701Z,8.82
2022-11-13T05:18:13.763Z,10.02
2022-11-13T05:20:42.014Z,9.57
2022-11-13T05:23:09.863Z,8.60
2022-11-13T05:25:37.782Z,9.13
2022-11-13T05:28:06.038Z,8.68
2022-11-13T05:30:35.442Z,9.30
2022-11-13T05:33:03.249Z,10.00
2022-11-13T05:35:31.214Z,10.00
2022-11-13T05:38:01.736Z,9.38
2022-11-13T05:40:30.071Z,9.52
2022-11-13T05:42:57.891Z,9.98
2022-11-13T05:45:25.859Z,9.25
2022-11-13T05:47:55.031Z,9.20
2022-11-13T05:50:22.940Z,9.85
2022-11-13T05:52:50.913Z,8.85
2022-11-13T05:55:23.025Z,9.98
2022-11-13T05:57:51.260Z,9.18
2022-11-13T06:00:19.978Z,8.95
2022-11-13T06:02:47.809Z,9.75
2022-11-13T06:05:17.319Z,10.52
2022-11-13T06:07:45.160Z,10.52
2022-11-13T06:10:13.658Z,10.32
2022-11-13T06:12:41.473Z,10.27
2022-11-13T06:15:10.210Z,9.73
2022-11-13T06:17:38.074Z,10.18
2022-11-13T06:20:06.478Z,10.32
2022-11-13T06:22:35.702Z,9.02
2022-11-13T06:25:03.736Z,9.35
2022-11-13T06:27:31.741Z,10.00
2022-11-13T06:29:59.573Z,10.10
2022-11-13T06:32:27.421Z,9.77
2022-11-13T06:34:55.336Z,10.60
2022-11-13T06:37:23.222Z,9.38
2022-11-13T06:39:52.444Z,9.35
2022-11-13T06:42:20.263Z,10.13
2022-11-13T06:44:48.142Z,10.05
2022-11-13T06:47:16.169Z,10.15
2022-11-13T06:49:44.106Z,9.38
2022-11-13T06:52:11.972Z,9.65
2022-11-13T06:54:39.950Z,10.13
2022-11-13T06:57:12.092Z,9.15
2022-11-13T06:59:39.943Z,9.48
2022-11-13T07:02:08.042Z,9.57
2022-11-13T07:04:35.973Z,8.65
2022-11-13T07:07:04.287Z,9.07
2022-11-13T07:09:32.781Z,9.02
2022-11-13T07:12:00.773Z,8.98
2022-11-13T07:14:30.063Z,8.88
2022-11-13T07:17:09.334Z,9.40
2022-11-13T07:19:38.127Z,9.43
2022-11-13T07:22:05.948Z,10.38
2022-11-13T07:24:33.807Z,9.23
2022-11-13T07:27:01.635Z,9.57
2022-11-13T07:29:30.867Z,8.82
2022-11-13T07:31:58.706Z,9.02
2022-11-13T07:34:26.864Z,8.27
2022-11-13T07:36:54.690Z,8.70
2022-11-13T07:39:22.609Z,8.55
2022-11-13T07:41:50.511Z,8.13
2022-11-13T07:44:39.962Z,7.45
2022-11-13T07:47:07.883Z,8.48
2022-11-13T07:49:36.142Z,7.13
2022-11-13T07:52:04.098Z,7.70
2022-11-13T07:54:32.037Z,8.88
2022-11-13T07:57:00.627Z,7.53
2022-11-13T07:59:28.658Z,8.85
2022-11-13T08:01:56.546Z,8.65
2022-11-13T08:04:25.940Z,7.13
2022-11-13T08:06:54.069Z,8.13
2022-11-13T08:09:22.265Z,8.00
2022-11-13T08:11:50.188Z,7.70
2022-11-13T08:14:18.070Z,7.20
2022-11-13T08:16:46.253Z,7.63
2022-11-13T08:19:14.292Z,8.35
2022-11-13T08:21:43.523Z,7.75
2022-11-13T08:24:11.655Z,7.78
2022-11-13T08:26:39.939Z,7.72
2022-11-13T08:29:07.930Z,8.00
2022-11-13T08:31:35.891Z,7.70
2022-11-13T08:34:03.777Z,6.85
2022-11-13T08:36:31.649Z,7.97
2022-11-13T08:39:00.888Z,7.90
2022-11-13T08:41:29.257Z,7.72
2022-11-13T08:43:57.137Z,6.80
2022-11-13T08:46:25.013Z,7.35
2022-11-13T08:48:52.862Z,7.32
2022-11-13T08:51:21.105Z,7.32
2022-11-13T08:53:49.035Z,7.07
2022-11-13T08:56:18.351Z,7.70
2022-11-13T08:58:46.217Z,7.15
2022-11-13T09:01:14.229Z,7.32
2022-11-13T09:03:42.179Z,7.57
2022-11-13T09:06:10.885Z,7.30
2022-11-13T09:08:38.805Z,7.60
2022-11-13T09:11:07.126Z,7.07
2022-11-13T09:13:41.200Z,7.00
2022-11-13T09:16:11.890Z,7.13
2022-11-13T09:18:39.928Z,7.22
2022-11-13T09:21:07.819Z,6.53
2022-11-13T09:23:36.190Z,6.68
2022-11-13T09:26:04.827Z,6.22
2022-11-13T09:28:32.941Z,6.85
2022-11-13T09:31:05.239Z,6.40
2022-11-13T09:33:33.471Z,6.60
2022-11-13T09:36:01.541Z,6.75
2022-11-13T09:38:31.997Z,6.75
2022-11-13T09:41:04.591Z,6.18
2022-11-13T09:43:37.593Z,7.28
2022-11-13T09:46:13.206Z,7.05
2022-11-13T09:48:45.215Z,7.35
2022-11-13T09:51:16.553Z,7.20
2022-11-13T09:53:44.665Z,6.72
2022-11-13T09:56:29.717Z,7.22
2022-11-13T09:59:16.635Z,6.55
2022-11-13T10:02:05.515Z,7.68
2022-11-13T10:04:48.415Z,7.70
2022-11-13T10:07:26.358Z,7.80
2022-11-13T10:10:16.292Z,8.52
2022-11-13T10:12:48.124Z,8.15
2022-11-13T10:15:18.588Z,8.50
2022-11-13T10:17:55.303Z,8.43
2022-11-13T10:20:28.365Z,7.88
2022-11-13T10:23:00.341Z,7.32
2022-11-13T10:25:36.153Z,7.35
2022-11-13T10:28:43.072Z,7.07
2022-11-13T10:31:01.238Z,5.65
2022-11-13T10:33:30.913Z,6.05
2022-11-13T10:36:05.752Z,6.22
2022-11-13T10:38:40.106Z,5.85
2022-11-13T10:41:12.598Z,5.53
2022-11-13T10:43:53.530Z,5.43
2022-11-13T10:46:26.149Z,5.45
2022-11-13T10:48:55.435Z,5.68
2022-11-13T10:51:26.409Z,5.03
2022-11-13T10:53:55.662Z,5.70
2022-11-13T10:56:29.499Z,5.63
2022-11-13T10:59:12.232Z,5.57
2022-11-13T11:01:41.313Z,6.20
2022-11-13T11:04:14.765Z,5.10
2022-11-13T11:07:18.490Z,5.07
2022-11-13T11:09:33.542Z,5.32
2022-11-13T11:12:19.198Z,5.40
2022-11-13T11:15:05.675Z,5.45
2022-11-13T11:17:39.752Z,6.00
2022-11-13T11:20:21.488Z,5.82
2022-11-13T11:22:56.690Z,5.80
2022-11-13T11:25:42.152Z,5.30
2022-11-13T11:28:18.599Z,5.90
2022-11-13T11:30:52.246Z,6.75
2022-11-13T11:33:26.643Z,6.05
2022-11-13T11:36:02.148Z,5.90
2022-11-13T11:38:34.907Z,5.85
2022-11-13T11:41:16.053Z,6.47
2022-11-13T11:43:47.070Z,6.13
2022-11-13T11:46:17.442Z,6.05
2022-11-13T11:48:45.348Z,6.45
2022-11-13T11:51:24.021Z,5.90
2022-11-13T11:54:04.110Z,5.97
2022-11-13T11:56:35.777Z,6.13
2022-11-13T11:59:17.528Z,6.20
2022-11-13T12:01:58.420Z,6.53
2022-11-13T12:04:48.254Z,6.05
2022-11-13T12:07:30.709Z,6.78
2022-11-13T12:10:11.162Z,6.22
2022-11-13T12:12:50.346Z,7.03
2022-11-13T12:15:25.176Z,6.47
2022-11-13T12:18:02.938Z,7.38
2022-11-13T12:20:39.225Z,6.18
2022-11-13T12:23:26.084Z,6.82
2022-11-13T12:26:00.860Z,6.70
2022-11-13T12:28:41.191Z,6.45
2022-11-13T12:31:20.845Z,6.00
2022-11-13T12:33:58.334Z,6.80
2022-11-13T12:36:29.956Z,6.63
2022-11-13T12:39:07.179Z,6.68
2022-11-13T12:41:44.882Z,6.50
2022-11-13T12:44:25.408Z,6.32
2022-11-13T12:46:55.402Z,6.00
2022-11-13T12:49:35.311Z,6.47
2022-11-13T12:52:04.973Z,6.30
2022-11-13T12:54:37.083Z,6.57
2022-11-13T12:57:17.656Z,6.10
2022-11-13T12:59:47.543Z,6.50
2022-11-13T13:02:52.732Z,6.13
2022-11-13T13:05:26.618Z,6.85
2022-11-13T13:08:14.408Z,6.65
2022-11-13T13:10:55.144Z,6.38
2022-11-13T13:13:32.130Z,6.70
2022-11-13T13:16:02.709Z,6.25
2022-11-13T13:18:34.430Z,6.93
2022-11-13T13:21:07.320Z,6.63
2022-11-13T13:23:37.255Z,6.10
2022-11-13T13:26:14.990Z,6.72
2022-11-13T13:28:44.770Z,6.15
2022-11-13T13:31:37.243Z,6.85
2022-11-13T13:34:28.892Z,5.95
2022-11-13T13:37:04.049Z,6.93
2022-11-13T13:39:45.719Z,6.07
2022-11-13T13:42:26.774Z,6.20
2022-11-13T13:45:25.768Z,5.93
2022-11-13T13:47:56.119Z,6.78
2022-11-13T13:50:26.872Z,6.63
2022-11-13T13:52:57.718Z,6.30
2022-11-13T13:55:32.800Z,6.70
2022-11-13T13:58:05.650Z,6.18
2022-11-13T14:00:34.567Z,6.43
2022-11-13T14:03:03.439Z,5.85
2022-11-13T14:05:34.139Z,5.95
2022-11-13T14:08:07.528Z,5.93
2022-11-13T14:10:37.974Z,6.20
2022-11-13T14:13:07.421Z,6.47
2022-11-13T14:15:36.798Z,6.40
2022-11-13T14:18:09.553Z,6.30
2022-11-13T14:20:43.233Z,6.72
2022-11-13T14:23:13.834Z,6.93
2022-11-13T14:25:42.426Z,6.85
2022-11-13T14:28:17.194Z,7.10
2022-11-13T14:30:45.417Z,7.20
2022-11-13T14:33:18.809Z,6.75
2022-11-13T14:35:56.164Z,7.10
2022-11-13T14:38:27.502Z,7.07
2022-11-13T14:40:57.452Z,7.15
2022-11-13T14:43:31.158Z,7.15
2022-11-13T14:46:01.823Z,7.53
2022-11-13T14:48:31.697Z,7.80
2022-11-13T14:51:02.037Z,7.53
2022-11-13T14:53:32.891Z,7.60
2022-11-13T14:56:04.822Z,7.50
2022-11-13T14:58:36.194Z,6.97
2022-11-13T15:01:18.524Z,7.65
2022-11-13T15:03:49.913Z,7.15
2022-11-13T15:06:20.968Z,7.68
2022-11-13T15:08:51.178Z,10.00
2022-11-13T15:11:21.293Z,9.13
2022-11-13T15:13:50.746Z,9.07
2022-11-13T15:16:22.593Z,8.93
2022-11-13T15:18:56.995Z,8.73
2022-11-13T15:21:25.473Z,8.80
2022-11-13T15:23:53.359Z,7.85
2022-11-13T15:26:21.355Z,8.32
2022-11-13T15:28:50.969Z,8.35
2022-11-13T15:31:21.522Z,8.98
2022-11-13T15:33:50.090Z,8.43
2022-11-13T15:36:18.314Z,8.38
2022-11-13T15:38:46.200Z,9.05
2022-11-13T15:41:17.309Z,8.15
2022-11-13T15:43:47.782Z,8.80
2022-11-13T15:46:20.032Z,8.77
2022-11-13T15:48:48.704Z,9.32
2022-11-13T15:51:22.188Z,9.07
2022-11-13T15:53:53.328Z,8.57
2022-11-13T15:58:24.101Z,9.35
2022-11-13T16:00:52.150Z,10.23
2022-11-13T16:03:20.633Z,9.50
2022-11-13T16:05:48.554Z,8.82
2022-11-13T16:08:17.462Z,9.10
2022-11-13T16:10:45.348Z,8.57
2022-11-13T16:13:13.484Z,8.77
2022-11-13T16:15:42.897Z,9.10
2022-11-13T16:18:19.850Z,10.27
2022-11-13T16:20:48.139Z,10.20
2022-11-13T16:23:18.209Z,10.35
2022-11-13T16:25:46.784Z,10.25
2022-11-13T16:28:17.168Z,11.32
2022-11-13T16:30:47.339Z,10.10
2022-11-13T16:33:15.188Z,9.90
2022-11-13T16:35:43.076Z,10.75
2022-11-13T16:38:14.184Z,10.90
2022-11-13T16:40:43.385Z,9.90
2022-11-13T16:43:13.136Z,10.80
2022-11-13T16:45:40.999Z,12.15
2022-11-13T16:48:14.406Z,11.05
2022-11-13T16:50:43.490Z,12.05
2022-11-13T16:53:11.837Z,11.32
2022-11-13T16:55:39.718Z,11.07
2022-11-13T16:58:07.563Z,12.43
2022-11-13T17:00:35.927Z,11.90
2022-11-13T17:03:03.850Z,11.73
2022-11-13T17:05:33.115Z,12.18
2022-11-13T17:08:01.794Z,11.13
2022-11-13T17:10:31.911Z,11.38
2022-11-13T17:13:01.447Z,11.15
2022-11-13T17:15:29.313Z,11.63
2022-11-13T17:17:59.309Z,14.65
2022-11-13T17:20:27.522Z,11.98
2022-11-13T17:22:57.179Z,12.90
2022-11-13T17:25:26.927Z,13.43
2022-11-13T17:27:55.476Z,13.77
2022-11-13T17:30:23.921Z,15.27
2022-11-13T17:32:51.802Z,13.75
2022-11-13T17:35:19.769Z,14.35
2022-11-13T17:37:47.619Z,13.70
2022-11-13T17:40:17.793Z,14.00
2022-11-13T17:42:48.183Z,14.77
2022-11-13T17:45:16.331Z,14.35
2022-11-13T17:47:45.030Z,13.02
2022-11-13T17:50:12.936Z,13.75
2022-11-13T17:52:40.854Z,13.60
2022-11-13T17:55:12.167Z,15.95
2022-11-13T17:57:41.359Z,17.45
2022-11-13T18:00:10.750Z,19.55
2022-11-13T18:02:39.616Z,20.98
2022-11-13T18:05:09.910Z,21.40
2022-11-13T18:07:38.444Z,21.63
2022-11-13T18:10:07.646Z,21.95
2022-11-13T18:12:35.502Z,23.52
2022-11-13T18:15:05.673Z,19.35
2022-11-13T18:17:33.647Z,19.20
2022-11-13T18:20:02.273Z,20.52
2022-11-13T18:22:31.090Z,17.83
2022-11-13T18:24:59.063Z,17.15
2022-11-13T18:27:27.009Z,22.55
2022-11-13T18:29:54.853Z,19.75
2022-11-13T18:32:24.132Z,17.90
2022-11-13T18:34:52.042Z,17.85
2022-11-13T18:37:19.922Z,17.83
2022-11-13T18:39:48.041Z,18.35
2022-11-13T18:42:15.895Z,19.15
2022-11-13T18:44:43.759Z,21.08
2022-11-13T18:47:11.872Z,23.42
2022-11-13T18:49:41.127Z,23.95
2022-11-13T18:52:09.123Z,23.33
2022-11-13T18:54:37.144Z,22.60
2022-11-13T18:57:05.238Z,22.90
2022-11-13T18:59:33.544Z,22.98
2022-11-13T19:02:01.586Z,19.38
2022-11-13T19:04:29.708Z,18.20
2022-11-13T19:06:59.653Z,17.42
2022-11-13T19:09:28.267Z,17.48
2022-11-13T19:11:56.147Z,18.95
2022-11-13T19:14:24.234Z,17.27
2022-11-13T19:16:52.189Z,19.23
2022-11-13T19:19:21.867Z,16.63
2022-11-13T19:21:50.320Z,16.90
2022-11-13T19:24:19.656Z,17.08
2022-11-13T19:26:48.092Z,16.67
2022-11-13T19:29:16.380Z,16.73
2022-11-13T19:31:46.738Z,15.70
2022-11-13T19:34:15.144Z,16.15
2022-11-13T19:36:45.071Z,16.63
2022-11-13T19:39:13.610Z,15.57
2022-11-13T19:41:43.132Z,16.67
2022-11-13T19:44:11.285Z,16.80
2022-11-13T19:46:39.255Z,18.02
2022-11-13T19:49:07.673Z,17.60
2022-11-13T19:51:35.885Z,16.65
2022-11-13T19:54:03.788Z,16.98
2022-11-13T19:56:31.700Z,16.55
2022-11-13T19:59:01.078Z,15.68
2022-11-13T20:01:32.104Z,16.73
2022-11-13T20:04:02.847Z,16.13
2022-11-13T20:06:33.443Z,17.15
2022-11-13T20:09:02.363Z,15.77
2022-11-13T20:11:30.856Z,16.88
2022-11-13T20:14:01.085Z,17.77
2022-11-13T20:16:29.061Z,18.33
2022-11-13T20:18:59.115Z,18.55
2022-11-13T20:21:28.189Z,20.27
2022-11-13T20:23:57.924Z,19.23
2022-11-13T20:26:26.132Z,19.80
2022-11-13T20:28:54.089Z,20.10
2022-11-13T20:31:24.603Z,19.70
2022-11-13T20:33:55.326Z,19.48
2022-11-13T20:36:24.325Z,19.08
2022-11-13T20:38:55.811Z,19.20
2022-11-13T20:41:24.813Z,20.17
2022-11-13T20:43:53.908Z,19.73
2022-11-13T20:46:23.273Z,20.42
2022-11-13T20:48:51.711Z,21.65
2022-11-13T20:51:21.213Z,21.52
2022-11-13T20:53:49.579Z,21.17
2022-11-13T20:56:18.779Z,20.45
2022-11-13T20:58:47.036Z,20.10
2022-11-13T21:01:16.976Z,19.55
2022-11-13T21:03:47.555Z,21.13
2022-11-13T21:06:17.912Z,21.17
2022-11-13T21:08:46.633Z,21.23
2022-11-13T21:11:18.973Z,19.33
2022-11-13T21:13:49.315Z,16.95
2022-11-13T21:16:18.189Z,16.92
2022-11-13T21:18:48.064Z,17.58
2022-11-13T21:21:18.893Z,18.20
2022-11-13T21:23:47.620Z,18.40
2022-11-13T21:26:16.099Z,18.88
2022-11-13T21:28:44.109Z,18.00
2022-11-13T21:31:15.438Z,16.88
2022-11-13T21:33:44.312Z,17.75
2022-11-13T21:36:15.196Z,18.27
2022-11-13T21:38:43.436Z,16.70
2022-11-13T21:41:23.287Z,17.02
2022-11-13T21:43:52.597Z,16.17
2022-11-13T21:46:21.299Z,17.83
2022-11-13T21:48:49.974Z,19.50
2022-11-13T21:51:19.309Z,19.48
2022-11-13T21:53:47.184Z,17.65
2022-11-13T21:56:15.793Z,17.65
2022-11-13T21:58:44.310Z,18.70
2022-11-13T22:01:13.681Z,18.35
2022-11-13T22:03:42.087Z,18.73
2022-11-13T22:06:15.116Z,17.23
2022-11-13T22:08:44.901Z,18.00
2022-11-13T22:11:13.313Z,20.08
2022-11-13T22:13:41.179Z,21.48
2022-11-13T22:16:12.239Z,20.50
2022-11-13T22:18:40.122Z,20.80
2022-11-13T22:21:10.057Z,21.80
2022-11-13T22:23:38.096Z,20.70
2022-11-13T22:26:08.865Z,20.92
2022-11-13T22:28:38.227Z,20.63
2022-11-13T22:31:06.821Z,22.15
2022-11-13T22:33:36.788Z,21.65
2022-11-13T22:36:06.797Z,22.30
2022-11-13T22:38:35.455Z,23.75
2022-11-13T22:41:05.265Z,23.58
2022-11-13T22:43:36.991Z,24.85
2022-11-13T22:46:06.876Z,24.40
2022-11-13T22:48:36.606Z,23.52
2022-11-13T22:51:06.145Z,23.33
2022-11-13T22:53:34.215Z,21.95
2022-11-13T22:56:03.854Z,23.75
2022-11-13T22:58:31.984Z,22.50
2022-11-13T23:01:06.523Z,20.80
2022-11-13T23:03:37.767Z,21.88
2022-11-13T23:06:06.153Z,20.65
2022-11-13T23:08:38.839Z,20.40
2022-11-13T23:11:07.805Z,20.88
2022-11-13T23:13:35.686Z,19.35
2022-11-13T23:16:04.991Z,20.95
2022-11-13T23:18:33.448Z,21.73
2022-11-13T23:21:01.331Z,21.15
2022-11-13T23:23:29.266Z,20.77
2022-11-13T23:25:57.076Z,20.67
2022-11-13T23:28:24.943Z,22.10
2022-11-13T23:30:52.830Z,20.75
2022-11-13T23:33:22.923Z,22.17
2022-11-13T23:35:51.096Z,21.00
2022-11-13T23:38:19.239Z,20.08
2022-11-13T23:40:47.123Z,21.02
2022-11-13T23:43:15.011Z,19.85
2022-11-13T23:45:43.765Z,19.77
2022-11-13T23:48:11.656Z,19.52
2022-11-13T23:50:40.914Z,18.42
2022-11-13T23:53:09.044Z,16.73
2022-11-13T23:55:38.874Z,16.83
2022-11-13T23:58:09.668Z,17.15
